Time;durP1;ratioP1;P1;durP2;ratioP2;P2;SDS_P1;SDS_P2;PMS_P1;PMS_P2;Temp;Humidity;BMP_temperature;BMP_pressure;BME280_temperature;BME280_humidity;BME280_pressure;Samples;Min_cycle;Max_cycle;Signal;HPM_P1;HPM_P2
2022/08/13 00:00:04;;;;;;;7.95;2.20;;;25.30;96.00;;;;;;4148999;28;20291;-93
2022/08/13 00:02:18;;;;;;;8.32;1.90;;;25.30;96.10;;;;;;4166338;28;20177;-95
2022/08/13 00:04:21;;;;;;;5.55;2.28;;;25.30;96.10;;;;;;4149169;28;20196;-93
2022/08/13 00:07:09;;;;;;;5.05;2.10;;;25.20;96.20;;;;;;4149406;28;20730;-94
2022/08/13 00:08:48;;;;;;;4.45;2.38;;;25.20;96.40;;;;;;4155297;28;20216;-93
2022/08/13 00:10:50;;;;;;;7.13;2.13;;;25.10;96.50;;;;;;4149476;28;21032;-95
2022/08/13 00:12:56;;;;;;;11.52;2.60;;;24.80;96.60;;;;;;4148476;28;20202;-94
2022/08/13 00:15:06;;;;;;;3.05;2.03;;;24.70;96.60;;;;;;4149361;28;20168;-93
2022/08/13 00:17:12;;;;;;;8.18;2.20;;;24.70;96.70;;;;;;4165284;28;20179;-93
2022/08/13 00:19:13;;;;;;;7.28;2.20;;;24.80;96.90;;;;;;4149306;28;20196;-93
2022/08/13 00:21:14;;;;;;;6.95;2.63;;;24.70;96.90;;;;;;4165116;28;20263;-94
2022/08/13 00:23:17;;;;;;;8.95;2.50;;;24.70;96.90;;;;;;4149198;28;20636;-94
2022/08/13 00:25:20;;;;;;;4.18;2.20;;;24.60;97.00;;;;;;4148948;28;20173;-95
2022/08/13 00:27:22;;;;;;;3.88;1.98;;;24.50;97.10;;;;;;4148974;28;20185;-94
2022/08/13 00:29:23;;;;;;;4.88;2.30;;;24.50;97.20;;;;;;4149003;28;20201;-93
2022/08/13 00:31:24;;;;;;;7.15;2.70;;;24.50;97.30;;;;;;4149204;28;20235;-94
2022/08/13 00:33:25;;;;;;;8.13;2.35;;;24.40;97.40;;;;;;4149364;28;20214;-93
2022/08/13 00:35:27;;;;;;;4.13;1.90;;;24.20;97.40;;;;;;4165185;28;20270;-94
2022/08/13 00:37:30;;;;;;;7.50;2.08;;;24.10;97.50;;;;;;4148745;28;20165;-94
2022/08/13 00:39:31;;;;;;;6.18;2.25;;;24.10;97.70;;;;;;4164722;28;20224;-93
2022/08/13 00:41:38;;;;;;;7.38;2.30;;;24.00;97.70;;;;;;4165197;28;20251;-94
2022/08/13 00:43:39;;;;;;;6.85;2.40;;;23.90;98.00;;;;;;4165098;28;20234;-94
2022/08/13 00:45:41;;;;;;;3.70;2.20;;;23.80;98.10;;;;;;4165130;28;20180;-92
2022/08/13 00:50:03;;;;;;;4.65;2.13;;;23.70;98.10;;;;;;4165203;28;20216;-93
2022/08/13 00:52:07;;;;;;;4.82;2.55;;;23.70;98.10;;;;;;4148699;28;20227;-94
2022/08/13 00:54:16;;;;;;;9.60;2.50;;;23.70;98.10;;;;;;4148609;28;20262;-93
2022/08/13 00:56:22;;;;;;;11.10;2.58;;;23.70;98.10;;;;;;4148381;28;20161;-93
2022/08/13 00:58:27;;;;;;;5.75;2.60;;;23.70;98.10;;;;;;4164643;28;20183;-93
2022/08/13 01:00:31;;;;;;;10.65;3.17;;;23.80;98.10;;;;;;4164682;28;20183;-93
2022/08/13 01:02:32;;;;;;;7.50;2.38;;;23.80;98.20;;;;;;4164827;28;20255;-92
2022/08/13 01:04:35;;;;;;;5.18;2.80;;;23.80;98.00;;;;;;4164828;28;20172;-94
2022/08/13 01:06:37;;;;;;;9.45;2.63;;;23.80;98.10;;;;;;4148104;28;20173;-94
2022/08/13 01:08:40;;;;;;;2.72;2.35;;;23.90;98.10;;;;;;4148008;28;20300;-94
2022/08/13 01:10:48;;;;;;;8.85;2.45;;;23.90;98.00;;;;;;4164973;28;20668;-95
2022/08/13 01:12:50;;;;;;;3.85;2.40;;;23.90;98.10;;;;;;4164098;28;20192;-93
2022/08/13 01:14:56;;;;;;;5.80;2.65;;;23.80;98.20;;;;;;4148258;28;20235;-92
2022/08/13 01:17:01;;;;;;;4.50;2.67;;;23.60;98.40;;;;;;4148329;28;20646;-94
2022/08/13 01:19:06;;;;;;;17.63;3.22;;;23.50;98.60;;;;;;4148314;28;20181;-93
2022/08/13 01:21:13;;;;;;;4.50;2.35;;;23.40;98.70;;;;;;4164742;28;20234;-93
2022/08/13 01:23:15;;;;;;;7.65;2.63;;;23.40;98.90;;;;;;4148116;28;20192;-95
2022/08/13 01:25:16;;;;;;;8.38;2.80;;;23.30;99.00;;;;;;4148077;28;20263;-93
2022/08/13 01:27:23;;;;;;;7.15;3.13;;;23.30;99.00;;;;;;4148714;28;20268;-92
2022/08/13 01:29:25;;;;;;;10.07;3.10;;;23.20;99.10;;;;;;4148430;28;20204;-94
2022/08/13 01:31:26;;;;;;;9.32;2.75;;;23.10;99.20;;;;;;4147847;28;20197;-94
2022/08/13 01:33:29;;;;;;;5.60;2.70;;;23.10;99.40;;;;;;4147627;28;20244;-95
2022/08/13 01:35:31;;;;;;;5.35;2.50;;;23.00;99.40;;;;;;4148225;28;20181;-94
2022/08/13 01:37:34;;;;;;;4.38;2.65;;;22.90;99.60;;;;;;4148052;28;20177;-95
2022/08/13 01:39:38;;;;;;;11.23;2.75;;;22.90;99.60;;;;;;4148369;28;20172;-94
2022/08/13 01:41:39;;;;;;;4.53;2.15;;;22.80;99.60;;;;;;4147880;28;20545;-93
2022/08/13 01:43:40;;;;;;;7.97;2.47;;;22.70;99.50;;;;;;4147812;28;20662;-94
2022/08/13 01:45:44;;;;;;;5.43;2.70;;;22.80;99.60;;;;;;4165594;28;20183;-95
2022/08/13 01:52:27;;;;;;;8.48;2.40;;;22.90;99.40;;;;;;4169511;28;20160;-93
2022/08/13 01:54:29;;;;;;;7.47;2.50;;;23.20;99.50;;;;;;4153302;28;20259;-95
2022/08/13 01:56:31;;;;;;;5.20;2.38;;;23.10;99.40;;;;;;4153392;28;20164;-95
2022/08/13 01:58:34;;;;;;;8.63;2.30;;;23.00;99.20;;;;;;4153660;28;20294;-95
2022/08/13 02:00:36;;;;;;;4.38;2.10;;;22.70;99.50;;;;;;4153210;28;20188;-94
2022/08/13 02:02:39;;;;;;;8.27;2.78;;;22.60;99.70;;;;;;4169284;22;20165;-93
2022/08/13 02:04:41;;;;;;;4.28;2.10;;;22.80;99.70;;;;;;4169931;28;20210;-93
2022/08/13 02:06:42;;;;;;;5.35;2.92;;;22.90;99.60;;;;;;4153615;28;20176;-94
2022/08/13 02:08:43;;;;;;;7.68;2.42;;;23.20;99.30;;;;;;4153540;28;20184;-94
2022/08/13 02:10:45;;;;;;;7.75;2.45;;;23.20;99.20;;;;;;4170115;28;20172;-89
2022/08/13 02:12:46;;;;;;;15.80;2.47;;;23.10;99.00;;;;;;4153440;28;20588;-91
2022/08/13 02:14:47;;;;;;;5.45;2.38;;;23.10;98.90;;;;;;4153430;28;20215;-88
2022/08/13 02:16:48;;;;;;;4.63;2.55;;;23.20;99.10;;;;;;4153314;28;20165;-94
2022/08/13 02:18:53;;;;;;;18.17;3.40;;;23.20;99.30;;;;;;4169799;28;20168;-93
2022/08/13 02:20:58;;;;;;;5.75;3.08;;;23.20;99.30;;;;;;4153434;28;20200;-93
2022/08/13 02:23:00;;;;;;;11.35;3.00;;;23.00;99.40;;;;;;4153343;28;20189;-94
2022/08/13 02:25:04;;;;;;;4.78;3.13;;;22.80;99.90;;;;;;4153551;28;20195;-93
2022/08/13 02:27:05;;;;;;;9.48;2.83;;;22.60;99.90;;;;;;4153587;28;20560;-95
2022/08/13 02:29:09;;;;;;;8.07;2.85;;;22.50;99.90;;;;;;4153742;28;20208;-91
2022/08/13 02:31:10;;;;;;;10.10;2.95;;;22.40;99.90;;;;;;4153418;28;20227;-93
2022/08/13 02:33:10;;;;;;;7.72;2.70;;;22.30;99.90;;;;;;4153286;28;20208;-95
2022/08/13 02:35:11;;;;;;;11.57;2.72;;;22.20;99.90;;;;;;4153391;28;20710;-90
2022/08/13 02:37:14;;;;;;;6.45;3.20;;;22.10;99.90;;;;;;4153599;28;20227;-93
2022/08/13 02:39:15;;;;;;;9.13;2.70;;;22.00;99.90;;;;;;4153316;28;20242;-92
2022/08/13 02:43:35;;;;;;;5.97;2.50;;;22.00;99.90;;;;;;4169462;28;20196;-92
2022/08/13 02:45:36;;;;;;;6.28;2.47;;;22.00;99.90;;;;;;4153319;28;20703;-94
2022/08/13 02:47:37;;;;;;;8.50;2.70;;;22.10;99.90;;;;;;4153155;28;20168;-93
2022/08/13 02:49:38;;;;;;;17.23;2.95;;;22.10;99.90;;;;;;4153133;28;20176;-93
2022/08/13 02:51:39;;;;;;;7.28;2.47;;;22.10;99.90;;;;;;4153190;28;20208;-94
2022/08/13 02:53:41;;;;;;;5.05;2.42;;;22.10;99.90;;;;;;4153327;28;20193;-92
2022/08/13 02:55:42;;;;;;;7.65;2.47;;;22.00;99.90;;;;;;4153444;28;20179;-93
2022/08/13 02:57:43;;;;;;;4.10;1.90;;;21.80;99.90;;;;;;4150490;28;20177;-94
2022/08/13 02:59:43;;;;;;;7.65;2.20;;;21.70;99.90;;;;;;4150399;28;20236;-91
2022/08/13 03:01:46;;;;;;;2.75;1.98;;;21.60;99.90;;;;;;4150566;28;20177;-94
2022/08/13 03:03:47;;;;;;;5.55;2.63;;;21.50;99.90;;;;;;4150230;28;20591;-94
2022/08/13 03:05:48;;;;;;;4.72;2.22;;;21.50;99.90;;;;;;4150725;28;20172;-91
2022/08/13 03:07:50;;;;;;;4.95;2.30;;;21.50;99.90;;;;;;4150384;28;20179;-89
2022/08/13 03:09:51;;;;;;;5.97;2.40;;;21.50;99.90;;;;;;4150415;28;20177;-93
2022/08/13 03:11:51;;;;;;;6.78;2.55;;;21.60;99.90;;;;;;4166792;28;20177;-91
2022/08/13 03:14:18;;;;;;;3.08;2.20;;;21.60;99.90;;;;;;4150446;28;20201;-89
2022/08/13 03:16:23;;;;;;;4.78;2.33;;;21.60;99.90;;;;;;4148521;28;20188;-88
2022/08/13 03:18:24;;;;;;;4.70;2.17;;;21.60;99.90;;;;;;4166776;28;20210;-94
2022/08/13 03:20:25;;;;;;;5.25;2.17;;;21.60;99.90;;;;;;4150133;28;20668;-88
2022/08/13 03:22:26;;;;;;;6.22;2.20;;;21.80;99.90;;;;;;4150100;28;20215;-89
2022/08/13 03:24:27;;;;;;;9.88;2.88;;;22.20;99.90;;;;;;4166485;28;20238;-93
2022/08/13 03:26:29;;;;;;;9.23;2.50;;;22.30;99.90;;;;;;4166379;28;20259;-91
2022/08/13 03:28:29;;;;;;;9.13;2.53;;;22.50;99.90;;;;;;4150104;28;20176;-95
2022/08/13 03:30:34;;;;;;;9.80;3.25;;;22.60;99.90;;;;;;4166858;28;20260;-90
2022/08/13 03:32:46;;;;;;;6.32;2.80;;;22.70;99.90;;;;;;4150162;28;20176;-93
2022/08/13 03:34:48;;;;;;;7.95;2.83;;;22.70;99.90;;;;;;4166581;28;20306;-92
2022/08/13 03:36:49;;;;;;;7.53;2.60;;;22.70;99.90;;;;;;4149685;28;20169;-94
2022/08/13 03:38:50;;;;;;;5.50;2.80;;;22.60;99.80;;;;;;4149901;28;20691;-88
2022/08/13 03:41:08;;;;;;;4.13;2.25;;;22.50;99.80;;;;;;4166359;28;20218;-92
2022/08/13 03:43:08;;;;;;;4.55;2.42;;;22.40;99.70;;;;;;4149796;28;20196;-92
2022/08/13 03:45:10;;;;;;;7.45;2.70;;;22.40;99.90;;;;;;4149902;28;20739;-91
2022/08/13 03:47:14;;;;;;;8.70;2.70;;;22.40;99.90;;;;;;4149752;28;20177;-94
2022/08/13 03:49:14;;;;;;;10.30;2.80;;;22.30;99.90;;;;;;4149635;28;20184;-95
2022/08/13 03:51:17;;;;;;;4.95;2.40;;;22.30;99.90;;;;;;4149664;28;20200;-91
2022/08/13 03:53:20;;;;;;;10.73;2.90;;;22.20;99.90;;;;;;4149437;28;20224;-94
2022/08/13 03:55:21;;;;;;;7.57;2.55;;;22.10;99.90;;;;;;4149663;28;20283;-93
2022/08/13 03:57:22;;;;;;;4.10;2.25;;;22.00;99.90;;;;;;4149772;28;20553;-94
2022/08/13 03:59:23;;;;;;;5.85;2.50;;;22.10;99.90;;;;;;4149553;28;20219;-94
2022/08/13 04:01:24;;;;;;;3.60;2.50;;;22.20;99.90;;;;;;4149571;28;20542;-93
2022/08/13 04:03:40;;;;;;;6.72;2.28;;;22.20;99.90;;;;;;4165643;28;20708;-94
2022/08/13 04:05:41;;;;;;;3.58;2.50;;;22.20;99.90;;;;;;4149785;28;20216;-93
2022/08/13 04:07:42;;;;;;;8.98;2.80;;;22.10;99.90;;;;;;4149662;28;20177;-93
2022/08/13 04:09:44;;;;;;;7.53;2.50;;;21.90;99.90;;;;;;4165499;28;20173;-92
2022/08/13 04:11:48;;;;;;;4.20;2.67;;;21.80;99.90;;;;;;4149453;28;20181;-93
2022/08/13 04:13:49;;;;;;;10.15;2.80;;;21.70;99.90;;;;;;4149476;28;20271;-92
2022/08/13 04:15:50;;;;;;;7.05;3.05;;;21.70;99.90;;;;;;4149248;28;20184;-92
2022/08/13 04:17:51;;;;;;;7.93;2.55;;;21.70;99.90;;;;;;4149250;28;20223;-94
2022/08/13 04:19:51;;;;;;;6.43;2.60;;;21.70;99.90;;;;;;4165711;28;20676;-94
2022/08/13 04:21:52;;;;;;;7.40;2.67;;;21.70;99.90;;;;;;4149401;28;20173;-93
2022/08/13 04:23:53;;;;;;;8.70;3.28;;;21.70;99.90;;;;;;4149246;28;20263;-91
2022/08/13 04:25:54;;;;;;;4.32;2.90;;;21.60;99.90;;;;;;4149424;28;20161;-95
2022/08/13 04:27:55;;;;;;;7.75;2.70;;;21.50;99.90;;;;;;4165446;28;20545;-93
2022/08/13 04:29:56;;;;;;;11.05;2.65;;;21.40;99.90;;;;;;4149514;28;20173;-92
2022/08/13 04:31:59;;;;;;;8.40;2.80;;;21.40;99.90;;;;;;4149390;28;20239;-94
2022/08/13 04:34:00;;;;;;;5.53;2.95;;;21.40;99.90;;;;;;4149407;28;20284;-94
2022/08/13 04:36:01;;;;;;;5.18;2.90;;;21.40;99.90;;;;;;4149236;28;20175;-94
2022/08/13 04:38:02;;;;;;;6.80;2.70;;;21.40;99.90;;;;;;4165698;28;20532;-94
2022/08/13 04:40:04;;;;;;;5.47;3.08;;;21.40;99.90;;;;;;4149249;28;20248;-95
2022/08/13 04:42:07;;;;;;;8.05;3.03;;;21.30;99.90;;;;;;4148904;28;20231;-94
2022/08/13 04:44:07;;;;;;;6.30;2.95;;;21.40;99.90;;;;;;4148987;28;20195;-93
2022/08/13 04:46:08;;;;;;;6.85;3.25;;;21.40;99.90;;;;;;4149129;28;20177;-87
2022/08/13 04:48:15;;;;;;;11.13;3.55;;;21.40;99.90;;;;;;4149107;28;20180;-92
2022/08/13 04:50:15;;;;;;;5.75;3.22;;;21.50;99.90;;;;;;4149093;28;20283;-93
2022/08/13 04:52:18;;;;;;;8.82;3.13;;;21.60;99.90;;;;;;4149168;28;20165;-87
2022/08/13 04:54:19;;;;;;;9.88;3.10;;;21.70;99.90;;;;;;4148894;28;20224;-95
2022/08/13 04:56:20;;;;;;;8.75;3.20;;;21.80;99.90;;;;;;4148737;28;20246;-93
2022/08/13 04:58:22;;;;;;;11.38;3.00;;;21.90;99.90;;;;;;4148766;28;20208;-95
2022/08/13 05:00:29;;;;;;;7.40;3.40;;;21.90;99.90;;;;;;4148487;28;20208;-96
2022/08/13 05:02:29;;;;;;;6.88;2.83;;;21.80;99.90;;;;;;4148663;28;20680;-88
2022/08/13 05:04:30;;;;;;;7.38;3.25;;;21.60;99.90;;;;;;4164934;28;20199;-87
2022/08/13 05:06:31;;;;;;;10.43;3.20;;;21.60;99.90;;;;;;4148695;28;20464;-94
2022/08/13 05:08:33;;;;;;;7.60;3.28;;;21.40;99.90;;;;;;4164922;28;20250;-93
2022/08/13 05:10:37;;;;;;;10.05;3.45;;;21.20;99.90;;;;;;4148636;28;20748;-94
2022/08/13 05:12:38;;;;;;;7.68;3.28;;;21.00;99.90;;;;;;4148508;28;20327;-94
2022/08/13 05:14:39;;;;;;;7.03;2.83;;;20.80;99.90;;;;;;4148740;28;20746;-93
2022/08/13 05:16:40;;;;;;;15.07;3.10;;;20.60;99.90;;;;;;4148580;28;20188;-93
2022/08/13 05:18:45;;;;;;;11.57;3.13;;;20.60;99.90;;;;;;4164857;28;20568;-91
2022/08/13 05:20:45;;;;;;;8.65;2.97;;;20.60;99.90;;;;;;4147939;28;20549;-95
2022/08/13 05:22:46;;;;;;;5.18;3.08;;;20.70;99.90;;;;;;4148057;28;20197;-87
2022/08/13 05:24:47;;;;;;;7.05;2.90;;;20.80;99.90;;;;;;4148525;28;20267;-87
2022/08/13 05:26:48;;;;;;;12.63;3.38;;;20.90;99.90;;;;;;4148579;28;20652;-88
2022/08/13 05:28:50;;;;;;;9.48;3.00;;;21.10;99.90;;;;;;4164753;28;20206;-95
2022/08/13 05:30:51;;;;;;;8.85;3.17;;;21.20;99.90;;;;;;4148306;28;20617;-87
2022/08/13 05:32:52;;;;;;;5.85;2.95;;;21.20;99.90;;;;;;4148529;28;20205;-95
2022/08/13 05:34:52;;;;;;;6.72;3.17;;;21.30;99.90;;;;;;4164891;28;20183;-88
2022/08/13 05:36:55;;;;;;;9.00;2.63;;;21.40;99.90;;;;;;4148259;28;20557;-95
2022/08/13 05:38:58;;;;;;;10.98;2.88;;;21.60;99.90;;;;;;4148456;28;20179;-88
2022/08/13 05:41:04;;;;;;;5.38;3.00;;;21.70;99.90;;;;;;4148515;28;20616;-88
2022/08/13 05:43:33;;;;;;;7.47;3.50;;;22.00;99.90;;;;;;4148302;28;20196;-90
2022/08/13 05:45:35;;;;;;;9.32;3.50;;;22.00;99.90;;;;;;4147098;28;20274;-88
2022/08/13 05:47:36;;;;;;;5.55;3.00;;;21.90;99.90;;;;;;4148338;28;20177;-88
2022/08/13 05:49:37;;;;;;;9.02;3.08;;;22.10;99.90;;;;;;4148301;28;20260;-91
2022/08/13 05:51:38;;;;;;;10.55;3.08;;;22.20;99.90;;;;;;4164256;28;20172;-87
2022/08/13 05:53:39;;;;;;;7.15;3.10;;;22.30;99.90;;;;;;4148086;28;20196;-89
2022/08/13 05:55:40;;;;;;;7.63;3.33;;;22.40;99.90;;;;;;4148032;28;20168;-87
2022/08/13 05:57:41;;;;;;;9.00;2.97;;;22.60;99.90;;;;;;4147903;28;20183;-88
2022/08/13 06:04:20;;;;;;;11.15;2.90;;;22.50;99.90;;;;;;4164612;28;20581;-88
2022/08/13 06:06:22;;;;;;;8.45;2.83;;;22.40;99.90;;;;;;4164325;28;20260;-93
2022/08/13 06:08:29;;;;;;;7.50;2.88;;;22.50;99.90;;;;;;4148263;28;20173;-88
2022/08/13 06:10:30;;;;;;;11.68;3.03;;;22.60;99.90;;;;;;4164696;28;20176;-92
2022/08/13 06:12:30;;;;;;;7.35;2.55;;;22.70;99.90;;;;;;4148056;28;20219;-90
2022/08/13 06:14:35;;;;;;;6.80;2.60;;;22.80;99.90;;;;;;4164317;28;20180;-95
2022/08/13 06:16:37;;;;;;;7.22;2.75;;;22.70;99.90;;;;;;4148095;28;20209;-88
2022/08/13 06:18:43;;;;;;;5.75;2.42;;;22.70;99.90;;;;;;4148159;28;20165;-89
2022/08/13 06:20:44;;;;;;;6.35;2.25;;;22.70;99.90;;;;;;4148079;28;20243;-93
2022/08/13 06:22:47;;;;;;;9.75;2.42;;;22.70;99.90;;;;;;4164133;28;20625;-88
2022/08/13 06:24:50;;;;;;;5.35;2.25;;;22.70;99.90;;;;;;4147959;28;20188;-93
2022/08/13 06:26:51;;;;;;;4.65;2.20;;;22.70;99.90;;;;;;4147984;28;20158;-94
2022/08/13 06:28:52;;;;;;;5.00;2.08;;;22.80;99.90;;;;;;4148196;28;20177;-88
2022/08/13 06:30:55;;;;;;;4.50;2.03;;;22.80;99.90;;;;;;4148264;28;20263;-88
2022/08/13 06:33:03;;;;;;;4.82;1.92;;;22.90;99.90;;;;;;4150427;28;20681;-88
2022/08/13 06:35:05;;;;;;;8.02;2.08;;;23.00;99.90;;;;;;4151158;28;20181;-96
2022/08/13 06:37:06;;;;;;;3.58;2.15;;;23.00;99.90;;;;;;4151043;28;20162;-92
2022/08/13 06:39:07;;;;;;;3.53;1.83;;;23.10;99.90;;;;;;4167163;28;20234;-94
2022/08/13 06:41:11;;;;;;;4.43;1.80;;;23.10;99.90;;;;;;4151021;28;20184;-89
2022/08/13 06:43:16;;;;;;;3.50;2.10;;;23.20;99.90;;;;;;4150661;28;20201;-94
2022/08/13 06:45:20;;;;;;;8.00;2.08;;;23.30;99.90;;;;;;4151006;28;20200;-93
2022/08/13 06:47:23;;;;;;;12.18;2.03;;;23.40;99.90;;;;;;4150735;28;20177;-92
2022/08/13 06:49:25;;;;;;;5.93;2.33;;;23.50;99.90;;;;;;4150700;28;20181;-88
2022/08/13 06:51:26;;;;;;;5.07;1.58;;;23.60;99.90;;;;;;4150657;28;20633;-93
2022/08/13 06:53:27;;;;;;;3.35;1.80;;;23.70;99.90;;;;;;4150715;28;20224;-88
2022/08/13 06:55:29;;;;;;;5.68;2.03;;;23.80;99.90;;;;;;4150852;28;20184;-90
2022/08/13 06:57:31;;;;;;;5.72;1.70;;;23.90;99.90;;;;;;4150673;28;20173;-95
2022/08/13 06:59:33;;;;;;;9.73;1.70;;;24.00;99.90;;;;;;4150618;28;20299;-95
2022/08/13 07:01:35;;;;;;;6.00;1.70;;;24.10;99.90;;;;;;4150630;28;20612;-95
2022/08/13 07:03:39;;;;;;;9.73;2.25;;;24.20;99.90;;;;;;4150367;28;20212;-87
2022/08/13 07:05:41;;;;;;;6.43;1.77;;;24.30;99.90;;;;;;4150745;28;20208;-95
2022/08/13 07:07:45;;;;;;;6.82;1.70;;;24.40;99.90;;;;;;4150653;28;20196;-90
2022/08/13 07:09:48;;;;;;;5.85;1.42;;;24.60;99.90;;;;;;4151406;28;20582;-94
2022/08/13 07:11:48;;;;;;;4.35;1.67;;;24.60;99.90;;;;;;4150713;28;20192;-94
2022/08/13 07:13:52;;;;;;;3.60;1.80;;;24.80;99.60;;;;;;4167034;28;20196;-92
2022/08/13 07:15:53;;;;;;;2.38;1.52;;;25.10;99.70;;;;;;4150608;28;20259;-94
2022/08/13 07:17:56;;;;;;;1.33;1.20;;;25.50;99.30;;;;;;4150436;28;20173;-92
2022/08/13 07:19:56;;;;;;;4.32;1.40;;;26.60;98.90;;;;;;4150486;28;20239;-93
2022/08/13 07:21:57;;;;;;;2.58;1.27;;;27.60;96.80;;;;;;4134400;28;20637;-92
2022/08/13 07:24:02;;;;;;;6.47;1.63;;;29.00;96.50;;;;;;4150089;28;20188;-94
2022/08/13 07:26:04;;;;;;;6.28;1.20;;;30.70;95.60;;;;;;4150755;28;20196;-94
2022/08/13 07:28:05;;;;;;;7.03;1.48;;;32.00;94.00;;;;;;4166943;28;20228;-93
2022/08/13 07:30:07;;;;;;;3.83;1.45;;;32.70;94.10;;;;;;4166458;28;20169;-91
2022/08/13 07:32:08;;;;;;;3.50;1.20;;;33.30;92.40;;;;;;4150187;28;20173;-96
2022/08/13 07:34:09;;;;;;;5.47;1.60;;;33.70;92.70;;;;;;4150182;28;20193;-95
2022/08/13 07:36:14;;;;;;;3.22;1.73;;;34.70;92.70;;;;;;4149898;28;20196;-95
2022/08/13 07:38:15;;;;;;;3.88;1.65;;;35.70;92.10;;;;;;4150031;28;20184;-93
2022/08/13 07:40:16;;;;;;;2.95;1.83;;;35.80;91.30;;;;;;4150201;28;20807;-94
2022/08/13 07:42:19;;;;;;;5.65;1.90;;;35.20;90.90;;;;;;4149960;28;20173;-95
2022/08/13 07:44:22;;;;;;;3.20;1.50;;;35.10;91.50;;;;;;4149209;28;20616;-94
2022/08/13 07:46:24;;;;;;;4.65;1.52;;;34.30;91.30;;;;;;4149829;28;20195;-93
2022/08/13 07:48:25;;;;;;;7.68;1.40;;;34.60;92.10;;;;;;4149786;28;20510;-95
2022/08/13 07:50:26;;;;;;;6.68;1.60;;;35.50;92.10;;;;;;4149709;28;20306;-94
2022/08/13 07:52:29;;;;;;;1.83;1.40;;;35.10;91.10;;;;;;4149535;28;20179;-94
2022/08/13 07:54:31;;;;;;;2.17;1.50;;;35.40;91.60;;;;;;4150556;28;20183;-94
2022/08/13 07:56:32;;;;;;;4.50;1.40;;;35.60;91.00;;;;;;4151207;28;20188;-93
2022/08/13 07:58:35;;;;;;;9.90;1.63;;;36.00;90.80;;;;;;4151699;28;20176;-95
2022/08/13 08:00:36;;;;;;;7.70;1.92;;;36.50;90.70;;;;;;4168232;28;20183;-95
2022/08/13 08:02:40;;;;;;;6.00;1.48;;;37.10;90.40;;;;;;4166933;22;20168;-94
2022/08/13 08:04:42;;;;;;;4.35;1.58;;;37.40;90.90;;;;;;4133707;28;20201;-95
2022/08/13 08:06:47;;;;;;;5.40;1.42;;;37.70;90.20;;;;;;4133638;28;20708;-94
2022/08/13 08:08:53;;;;;;;5.30;1.48;;;37.30;90.20;;;;;;4149968;28;20215;-94
2022/08/13 08:10:57;;;;;;;15.55;2.17;;;36.70;89.90;;;;;;4133236;28;20177;-93
2022/08/13 08:12:59;;;;;;;1.95;1.40;;;36.50;90.90;;;;;;4133272;28;20201;-96
2022/08/13 08:15:01;;;;;;;14.00;1.73;;;36.70;90.40;;;;;;4117142;28;20178;-92
2022/08/13 08:17:05;;;;;;;3.97;1.23;;;37.10;90.30;;;;;;4149250;28;20514;-94
2022/08/13 08:19:06;;;;;;;7.03;1.50;;;37.30;90.20;;;;;;4117225;28;20181;-94
2022/08/13 08:21:09;;;;;;;6.72;1.50;;;37.60;90.00;;;;;;4149020;28;20607;-94
2022/08/13 08:23:11;;;;;;;2.72;1.50;;;37.90;90.10;;;;;;4116933;28;20670;-96
2022/08/13 08:25:29;;;;;;;9.80;1.70;;;38.10;88.70;;;;;;4149374;28;20172;-95
2022/08/13 08:27:33;;;;;;;4.25;1.30;;;38.10;89.10;;;;;;4117163;28;20178;-95
2022/08/13 08:29:34;;;;;;;5.22;1.70;;;38.80;88.10;;;;;;4135131;28;20204;-94
2022/08/13 08:31:39;;;;;;;4.25;1.40;;;38.80;88.70;;;;;;4121462;28;20174;-96
2022/08/13 08:33:42;;;;;;;5.47;1.30;;;39.40;89.40;;;;;;4120401;28;20225;-93
2022/08/13 08:35:43;;;;;;;11.43;1.90;;;39.40;88.00;;;;;;4137723;28;20184;-94
2022/08/13 08:42:39;;;;;;;12.65;1.92;;;40.10;88.10;;;;;;4139028;28;20200;-94
2022/08/13 08:44:40;;;;;;;9.23;1.15;;;40.50;87.80;;;;;;4123075;28;20233;-94
2022/08/13 08:46:43;;;;;;;15.23;1.30;;;40.60;86.50;;;;;;4139144;28;20181;-93
2022/08/13 08:48:44;;;;;;;4.18;1.20;;;41.10;86.50;;;;;;4122234;28;20220;-95
2022/08/13 08:50:45;;;;;;;6.45;1.42;;;41.20;85.80;;;;;;4133571;28;20231;-93
2022/08/13 08:55:09;;;;;;;4.68;1.55;;;40.80;84.80;;;;;;4134215;28;20188;-93
2022/08/13 08:57:11;;;;;;;12.20;1.42;;;40.70;86.90;;;;;;4120057;28;20274;-93
2022/08/13 08:59:15;;;;;;;9.40;1.30;;;40.80;84.30;;;;;;4119074;28;20211;-94
2022/08/13 09:01:24;;;;;;;6.35;1.20;;;40.50;83.90;;;;;;4134156;28;20185;-94
2022/08/13 09:03:27;;;;;;;2.90;0.88;;;40.10;84.10;;;;;;4133170;28;20247;-94
2022/08/13 09:05:28;;;;;;;5.40;1.27;;;39.70;83.70;;;;;;4117011;28;20169;-94
2022/08/13 09:07:30;;;;;;;3.45;1.05;;;39.50;84.60;;;;;;4116433;28;20182;-94
2022/08/13 09:09:30;;;;;;;7.40;1.40;;;39.50;85.00;;;;;;4132361;28;20239;-95
2022/08/13 09:11:34;;;;;;;4.03;1.00;;;39.60;83.60;;;;;;4149157;28;20168;-94
2022/08/13 09:13:35;;;;;;;6.30;1.20;;;39.50;84.10;;;;;;4116485;28;20190;-94
2022/08/13 09:15:39;;;;;;;9.68;1.20;;;39.60;84.60;;;;;;4116956;28;20563;-94
2022/08/13 09:17:41;;;;;;;1.25;0.80;;;39.70;83.40;;;;;;4133184;28;20185;-94
2022/08/13 09:19:41;;;;;;;1.95;0.90;;;40.20;84.50;;;;;;4116498;28;20229;-94
2022/08/13 09:21:45;;;;;;;5.65;1.67;;;40.10;83.40;;;;;;4132450;28;20256;-94
2022/08/13 09:23:46;;;;;;;5.05;1.00;;;40.30;84.70;;;;;;4149277;28;20199;-95
2022/08/13 09:25:51;;;;;;;3.40;1.27;;;40.50;81.50;;;;;;4132519;28;20173;-94
2022/08/13 09:27:53;;;;;;;6.78;1.00;;;39.90;82.00;;;;;;4132524;28;20191;-92
2022/08/13 09:29:54;;;;;;;6.28;0.82;;;40.10;80.80;;;;;;4132935;28;20173;-94
2022/08/13 09:31:58;;;;;;;2.35;1.00;;;40.20;80.80;;;;;;4133034;28;20177;-92
2022/08/13 09:34:00;;;;;;;3.08;1.00;;;38.50;79.90;;;;;;4132361;28;20199;-92
2022/08/13 09:36:01;;;;;;;5.30;1.00;;;38.20;81.40;;;;;;4116039;28;20228;-92
2022/08/13 09:38:06;;;;;;;1.10;0.85;;;38.20;81.80;;;;;;4116275;28;20178;-94
2022/08/13 09:40:10;;;;;;;6.75;0.90;;;38.30;82.10;;;;;;4116255;28;20213;-94
2022/08/13 09:42:33;;;;;;;7.50;0.80;;;38.40;81.90;;;;;;4148377;28;20179;-92
2022/08/13 09:44:41;;;;;;;6.00;1.00;;;38.70;81.70;;;;;;4116031;28;20185;-92
2022/08/13 09:46:42;;;;;;;3.22;1.00;;;38.50;81.10;;;;;;4115906;28;20231;-93
2022/08/13 09:48:44;;;;;;;3.80;1.00;;;38.00;83.00;;;;;;4132514;28;20641;-94
2022/08/13 09:50:44;;;;;;;3.63;0.63;;;38.40;81.50;;;;;;4116314;28;20209;-94
2022/08/13 09:52:45;;;;;;;3.65;0.82;;;37.90;79.40;;;;;;4132350;28;20184;-93
2022/08/13 09:54:50;;;;;;;5.35;1.00;;;37.60;82.50;;;;;;4116478;28;20233;-95
2022/08/13 09:56:52;;;;;;;3.53;0.88;;;38.20;83.00;;;;;;4116676;28;20188;-92
2022/08/13 09:58:52;;;;;;;13.20;1.00;;;38.00;80.70;;;;;;4132236;28;20247;-93
2022/08/13 10:00:54;;;;;;;2.25;0.70;;;38.50;81.50;;;;;;4116316;28;20178;-95
2022/08/13 10:03:03;;;;;;;3.40;0.88;;;38.70;81.50;;;;;;4116313;28;20244;-95
2022/08/13 10:05:06;;;;;;;3.30;0.73;;;39.30;81.90;;;;;;4120390;28;20173;-96
2022/08/13 10:07:08;;;;;;;3.38;0.80;;;39.30;78.20;;;;;;4132801;28;20176;-94
2022/08/13 10:09:09;;;;;;;6.68;0.98;;;38.90;79.30;;;;;;4153652;28;20326;-94
2022/08/13 10:11:10;;;;;;;4.50;0.80;;;39.30;81.00;;;;;;4129477;28;20562;-96
2022/08/13 10:13:11;;;;;;;2.65;0.80;;;38.80;79.80;;;;;;4126679;28;20576;-95
2022/08/13 10:15:13;;;;;;;6.28;0.90;;;39.10;79.20;;;;;;4136173;28;20173;-95
2022/08/13 10:17:16;;;;;;;2.28;0.80;;;39.10;80.00;;;;;;4135289;28;20180;-94
2022/08/13 10:19:17;;;;;;;3.13;0.68;;;38.60;79.70;;;;;;4119064;28;20208;-95
2022/08/13 10:21:18;;;;;;;7.28;0.90;;;37.90;77.10;;;;;;4134969;28;20231;-90
2022/08/13 10:23:19;;;;;;;4.50;0.88;;;37.60;78.60;;;;;;4119054;28;20197;-94
2022/08/13 10:25:20;;;;;;;2.13;0.77;;;37.20;78.30;;;;;;4135047;28;20173;-94
2022/08/13 10:27:24;;;;;;;4.47;0.85;;;37.20;78.80;;;;;;4119131;28;20257;-94
2022/08/13 10:29:25;;;;;;;2.05;0.90;;;36.30;79.00;;;;;;4119085;28;20205;-93
2022/08/13 10:31:28;;;;;;;1.13;0.82;;;35.40;81.20;;;;;;4155120;28;20232;-94
2022/08/13 10:33:31;;;;;;;3.30;0.80;;;34.90;81.30;;;;;;4125548;28;20197;-92
2022/08/13 10:35:31;;;;;;;5.18;0.70;;;34.40;83.50;;;;;;4145402;28;20653;-92
2022/08/13 10:37:34;;;;;;;10.93;0.90;;;34.00;80.80;;;;;;4139333;28;20187;-93
2022/08/13 10:39:35;;;;;;;7.85;1.20;;;33.80;82.00;;;;;;4135277;28;20640;-92
2022/08/13 10:41:36;;;;;;;1.50;0.90;;;33.60;79.50;;;;;;4135551;28;20184;-93
2022/08/13 10:43:40;;;;;;;1.15;0.60;;;33.80;81.30;;;;;;4118676;28;20241;-92
2022/08/13 10:54:44;;;;;;;3.78;0.68;;;32.50;80.60;;;;;;4133941;28;20739;-93
2022/08/13 10:56:45;;;;;;;4.20;0.85;;;32.50;83.40;;;;;;4102267;29;20241;-91
2022/08/13 10:58:46;;;;;;;0.80;0.70;;;32.70;81.60;;;;;;4117940;28;20613;-94
2022/08/13 11:00:47;;;;;;;1.27;0.70;;;32.80;82.80;;;;;;4101897;28;20183;-95
2022/08/13 11:02:50;;;;;;;1.85;0.70;;;32.60;81.40;;;;;;4110452;28;20163;-93
2022/08/13 11:05:01;;;;;;;2.55;0.50;;;32.70;82.60;;;;;;4102994;28;20305;-93
2022/08/13 11:07:13;;;;;;;2.42;0.65;;;32.70;84.30;;;;;;4104579;28;21022;-92